地図

経路データ

SID SEASON NUMBER BASIN SUBBASIN NAME ISO_TIME NATURE LAT LON WMO_WIND WMO_PRES WMO_AGENCY TRACK_TYPE DIST2LAND LANDFALL IFLAG USA_AGENCY USA_ATCF_ID USA_LAT USA_LON USA_RECORD USA_STATUS USA_WIND USA_PRES USA_SSHS USA_R34_NE USA_R34_SE USA_R34_SW USA_R34_NW USA_R50_NE USA_R50_SE USA_R50_SW USA_R50_NW USA_R64_NE USA_R64_SE USA_R64_SW USA_R64_NW USA_POCI USA_ROCI USA_RMW USA_EYE TOKYO_LAT TOKYO_LON TOKYO_GRADE TOKYO_WIND TOKYO_PRES TOKYO_R50_DIR TOKYO_R50_LONG TOKYO_R50_SHORT TOKYO_R30_DIR TOKYO_R30_LONG TOKYO_R30_SHORT TOKYO_LAND CMA_LAT CMA_LON CMA_CAT CMA_WIND CMA_PRES HKO_LAT HKO_LON HKO_CAT HKO_WIND HKO_PRES NEWDELHI_LAT NEWDELHI_LON NEWDELHI_GRADE NEWDELHI_WIND NEWDELHI_PRES NEWDELHI_CI NEWDELHI_DP NEWDELHI_POCI REUNION_LAT REUNION_LON REUNION_TYPE REUNION_WIND REUNION_PRES REUNION_TNUM REUNION_CI REUNION_RMW REUNION_R34_NE REUNION_R34_SE REUNION_R34_SW REUNION_R34_NW REUNION_R50_NE REUNION_R50_SE REUNION_R50_SW REUNION_R50_NW REUNION_R64_NE REUNION_R64_SE REUNION_R64_SW REUNION_R64_NW BOM_LAT BOM_LON BOM_TYPE BOM_WIND BOM_PRES BOM_TNUM BOM_CI BOM_RMW BOM_R34_NE BOM_R34_SE BOM_R34_SW BOM_R34_NW BOM_R50_NE BOM_R50_SE BOM_R50_SW BOM_R50_NW BOM_R64_NE BOM_R64_SE BOM_R64_SW BOM_R64_NW BOM_ROCI BOM_POCI BOM_EYE BOM_POS_METHOD BOM_PRES_METHOD NADI_LAT NADI_LON NADI_CAT NADI_WIND NADI_PRES WELLINGTON_LAT WELLINGTON_LON WELLINGTON_WIND WELLINGTON_PRES DS824_LAT DS824_LON DS824_STAGE DS824_WIND DS824_PRES TD9636_LAT TD9636_LON TD9636_STAGE TD9636_WIND TD9636_PRES TD9635_LAT TD9635_LON TD9635_WIND TD9635_PRES TD9635_ROCI NEUMANN_LAT NEUMANN_LON NEUMANN_CLASS NEUMANN_WIND NEUMANN_PRES MLC_LAT MLC_LON MLC_CLASS MLC_WIND MLC_PRES USA_GUST BOM_GUST BOM_GUST_PER REUNION_GUST REUNION_GUST_PER USA_SEAHGT USA_SEARAD_NE USA_SEARAD_SE USA_SEARAD_SW USA_SEARAD_NW STORM_SPEED STORM_DIR
1945229N15137 1945 46 WP MM SUSAN 1945-08-17 09:00:00 NR 14.9000 137.400 main 1321 1295 __________O___ -1 14.9000 137.400 7 9 311
1945229N15137 1945 46 WP MM SUSAN 1945-08-17 12:00:00 NR 15.2052 137.043 main 1287 1264 __________P___ -1 15.2052 137.043 7 9 311
1945229N15137 1945 46 WP MM SUSAN 1945-08-17 15:00:00 NR 15.4981 136.699 main 1264 1240 __________P___ -1 15.4981 136.699 7 9 311
1945229N15137 1945 46 WP MM SUSAN 1945-08-17 18:00:00 NR 15.7669 136.380 main 1243 1219 __________P___ -1 15.7669 136.380 7 8 311
1945229N15137 1945 46 WP MM SUSAN 1945-08-17 21:00:00 NR 16.0000 136.100 main 1219 1203 __________O___ -1 16.0000 136.100 7 7 311
1945229N15137 1945 46 WP MM SUSAN 1945-08-18 00:00:00 NR 16.1898 135.869 main 1207 1191 __________P___ -1 16.1898 135.869 7 5 311
1945229N15137 1945 46 WP MM SUSAN 1945-08-18 03:00:00 NR 16.3447 135.682 main 1191 1180 __________P___ -1 16.3447 135.682 7 4 311
1945229N15137 1945 46 WP MM SUSAN 1945-08-18 06:00:00 NR 16.4773 135.529 main 1180 1174 __________P___ -1 16.4773 135.529 7 4 313
1945229N15137 1945 46 WP MM SUSAN 1945-08-18 09:00:00 NR 16.6000 135.400 main 1174 1169 __________O___ -1 16.6000 135.400 7 3 315
1945229N15137 1945 46 WP MM SUSAN 1945-08-18 12:00:00 NR 16.7158 135.282 main 1169 1164 __________P___ -1 16.7158 135.282 7 3 318
1945229N15137 1945 46 WP MM SUSAN 1945-08-18 15:00:00 NR 16.8274 135.185 main 1164 1159 __________P___ -1 16.8274 135.185 7 3 322
1945229N15137 1945 46 WP MM SUSAN 1945-08-18 18:00:00 NR 16.9502 135.095 main 1164 1154 __________P___ -1 16.9502 135.095 7 3 327
1945229N15137 1945 46 WP MM SUSAN 1945-08-18 21:00:00 NR 17.1000 135.000 main 1159 1155 __________O___ -1 17.1000 135.000 7 4 331
1945229N15137 1945 46 WP MM SUSAN 1945-08-19 00:00:00 NR 17.3125 134.882 main 1160 1156 __________P___ -1 17.3125 134.882 7 5 333
1945229N15137 1945 46 WP MM SUSAN 1945-08-19 03:00:00 NR 17.5500 134.758 main 1167 1158 __________P___ -1 17.5500 134.758 7 5 333
1945229N15137 1945 46 WP MM SUSAN 1945-08-19 06:00:00 NR 17.7875 134.629 main 1161 1157 __________P___ -1 17.7875 134.629 7 5 332
1945229N15137 1945 46 WP MM SUSAN 1945-08-19 09:00:00 NR 18.0000 134.500 main 1163 1161 __________O___ -1 18.0000 134.500 7 4 327
1945229N15137 1945 46 WP MM SUSAN 1945-08-19 12:00:00 NR 18.1292 134.395 main 1161 1158 __________P___ -1 18.1292 134.395 7 3 319
1945229N15137 1945 46 WP MM SUSAN 1945-08-19 15:00:00 NR 18.2348 134.287 main 1158 1156 __________P___ -1 18.2348 134.287 7 3 314
1945229N15137 1945 46 WP MM SUSAN 1945-08-19 18:00:00 NR 18.3479 134.160 main 1156 1142 __________P___ -1 18.3479 134.160 7 4 314
1945229N15137 1945 46 WP MM SUSAN 1945-08-19 21:00:00 NR 18.5000 134.000 main 1147 1137 __________O___ -1 18.5000 134.000 7 5 320
1945229N15137 1945 46 WP MM SUSAN 1945-08-20 00:00:00 NR 18.7480 133.806 main 1137 1133 __________P___ -1 18.7480 133.806 7 7 323
1945229N15137 1945 46 WP MM SUSAN 1945-08-20 03:00:00 NR 19.0348 133.575 main 1134 1124 __________P___ -1 19.0348 133.575 7 8 321
1945229N15137 1945 46 WP MM SUSAN 1945-08-20 06:00:00 NR 19.3291 133.306 main 1124 1115 __________P___ -1 19.3291 133.306 7 8 316
1945229N15137 1945 46 WP MM SUSAN 1945-08-20 09:00:00 NR 19.6000 133.000 main 1115 1102 __________O___ -1 19.6000 133.000 7 8 309
1945229N15137 1945 46 WP MM SUSAN 1945-08-20 12:00:00 NR 19.8241 132.661 main 1102 1065 __________P___ -1 19.8241 132.661 7 8 302
1945229N15137 1945 46 WP MM SUSAN 1945-08-20 15:00:00 NR 20.0176 132.288 main 1065 1027 __________P___ -1 20.0176 132.288 7 8 296
1945229N15137 1945 46 WP MM SUSAN 1945-08-20 18:00:00 NR 20.1772 131.895 main 1027 988 __________P___ -1 20.1772 131.895 7 8 291
1945229N15137 1945 46 WP MM SUSAN 1945-08-20 21:00:00 NR 20.3000 131.500 main 988 949 __________O___ -1 20.3000 131.500 7 7 286
1945229N15137 1945 46 WP MM SUSAN 1945-08-21 00:00:00 NR 20.3775 131.128 main 949 918 __________P___ -1 20.3775 131.128 7 7 280
1945229N15137 1945 46 WP MM SUSAN 1945-08-21 03:00:00 NR 20.4221 130.757 main 918 878 __________P___ -1 20.4221 130.757 7 7 276
1945229N15137 1945 46 WP MM SUSAN 1945-08-21 06:00:00 NR 20.4556 130.382 main 881 840 __________P___ -1 20.4556 130.382 7 7 276
1945229N15137 1945 46 WP MM SUSAN 1945-08-21 09:00:00 NR 20.5000 130.000 main 840 803 __________O___ -1 20.5000 130.000 7 8 279
1945229N15137 1945 46 WP MM SUSAN 1945-08-21 12:00:00 NR 20.5820 129.559 main 803 757 __________P___ -1 20.5820 129.559 7 8 282
1945229N15137 1945 46 WP MM SUSAN 1945-08-21 15:00:00 NR 20.6781 129.118 main 757 722 __________P___ -1 20.6781 129.118 7 8 284
1945229N15137 1945 46 WP MM SUSAN 1945-08-21 18:00:00 NR 20.7852 128.718 main 722 697 __________P___ -1 20.7852 128.718 7 7 288
1945229N15137 1945 46 WP MM SUSAN 1945-08-21 21:00:00 NR 20.9000 128.400 main 697 682 __________O___ -1 20.9000 128.400 7 5 295
1945229N15137 1945 46 WP MM SUSAN 1945-08-22 00:00:00 NR 21.0132 128.197 main 682 677 __________P___ -1 21.0132 128.197 7 4 308
1945229N15137 1945 46 WP MM SUSAN 1945-08-22 03:00:00 NR 21.1344 128.080 main 677 673 __________P___ -1 21.1344 128.080 7 3 327
1945229N15137 1945 46 WP MM SUSAN 1945-08-22 06:00:00 NR 21.2634 128.022 main 678 678 __________P___ -1 21.2634 128.022 7 3 344
1945229N15137 1945 46 WP MM SUSAN 1945-08-22 09:00:00 NR 21.4000 128.000 main 683 680 __________O___ -1 21.4000 128.000 7 3 341
1945229N15137 1945 46 WP MM SUSAN 1945-08-22 12:00:00 NR 21.5304 127.927 main 680 680 __________P___ -1 21.5304 127.927 7 3 339
1945229N15137 1945 46 WP MM SUSAN 1945-08-22 15:00:00 NR 21.6697 127.888 main 686 683 __________P___ -1 21.6697 127.888 7 3 0
1945229N15137 1945 46 WP MM SUSAN 1945-08-22 18:00:00 NR 21.8241 127.905 main 683 682 __________P___ -1 21.8241 127.905 7 3 18
1945229N15137 1945 46 WP MM SUSAN 1945-08-22 21:00:00 NR 22.0000 128.000 main 682 509 __________O___ -1 22.0000 128.000 7 16 305
1945229N15137 1945 46 WP MM SUSAN 1945-08-23 00:00:00 TS 22.7600 126.450 main 495 468 O________OPO__ jtwc_wp WP141945 23.3000 124.700 60 0 23.3000 124.700 TC 60 22.2200 128.199 7 23.3000 124.700 60 987 180 19 304
1945229N15137 1945 46 WP MM SUSAN 1945-08-23 03:00:00 TS 23.0508 126.289 main 473 473 P________PPP__ WP141945 23.3529 125.202 60 0 23.3529 125.202 TC 60 22.4579 128.474 7 23.3529 125.202 60 987 210 5 0
1945229N15137 1945 46 WP MM SUSAN 1945-08-23 06:00:00 TS 23.2170 126.464 main 489 486 O________OPO__ jtwc_wp WP141945 23.4000 125.700 60 0 23.4000 125.700 TC 60 22.6919 128.787 7 23.4000 125.700 60 988 240 5 58
1945229N15137 1945 46 WP MM SUSAN 1945-08-23 09:00:00 TS 23.3297 126.769 main 515 515 P________POP__ WP141945 23.4423 126.193 60 0 23.4423 126.193 TC 60 22.9000 129.100 7 23.4423 126.193 60 987 240 7 74
1945229N15137 1945 46 WP MM SUSAN 1945-08-23 12:00:00 TS 23.4123 127.231 main 552 552 O________OPO__ jtwc_wp WP141945 23.5000 126.700 60 0 23.5000 126.700 TC 60 23.0616 129.354 7 23.5000 126.700 60 987 240 9 78
1945229N15137 1945 46 WP MM SUSAN 1945-08-23 15:00:00 TS 23.5196 127.727 main 599 599 P________PPP__ WP141945 23.6000 127.257 65 1 23.6000 127.257 TC 65 23.1947 129.600 7 23.6000 127.257 65 985 180 9 77
1945229N15137 1945 46 WP MM SUSAN 1945-08-23 18:00:00 TS 23.6211 128.209 main 647 647 O________OPO__ jtwc_wp WP141945 23.7000 127.800 70 1 23.7000 127.800 TC 70 23.3054 129.847 7 23.7000 127.800 70 983 120 8 79
1945229N15137 1945 46 WP MM SUSAN 1945-08-23 21:00:00 TS 23.6799 128.632 main 683 683 P________POP__ WP141945 23.7497 128.265 70 1 23.7497 128.265 TC 70 23.4000 130.100 7 23.7497 128.265 70 981 120 8 81
1945229N15137 1945 46 WP MM SUSAN 1945-08-24 00:00:00 TS 23.7379 129.036 main 723 723 O________OPO__ jtwc_wp WP141945 23.8000 128.700 70 1 23.8000 128.700 TC 70 23.4894 130.380 7 23.8000 128.700 70 979 120 8 79
1945229N15137 1945 46 WP MM SUSAN 1945-08-24 03:00:00 TS 23.8217 129.454 main 770 770 P________PPP__ WP141945 23.8849 129.150 72 1 23.8849 129.150 TC 72 23.5651 130.665 7 23.8849 129.150 72 978 120 8 76
1945229N15137 1945 46 WP MM SUSAN 1945-08-24 06:00:00 TS 23.9277 129.870 main 796 782 O________OPO__ jtwc_wp WP141945 24.0000 129.600 75 1 24.0000 129.600 TC 75 23.6332 130.943 7 24.0000 129.600 75 977 120 8 73
1945229N15137 1945 46 WP MM SUSAN 1945-08-24 09:00:00 TS 24.0543 130.281 main 771 759 P________POP__ WP141945 24.1424 130.050 75 1 24.1424 130.050 TC 75 23.7000 131.200 7 24.1424 130.050 75 976 150 8 70
1945229N15137 1945 46 WP MM SUSAN 1945-08-24 12:00:00 TS 24.1892 130.676 main 759 748 O________OPO__ jtwc_wp WP141945 24.3000 130.500 75 1 24.3000 130.500 TC 75 23.7458 131.378 7 24.3000 130.500 75 976 180 8 70
1945229N15137 1945 46 WP MM SUSAN 1945-08-24 15:00:00 TS 24.3111 131.073 main 749 738 P________PPP__ WP141945 24.4424 130.958 75 1 24.4424 130.958 TC 75 23.7963 131.541 7 24.4424 130.958 75 975 180 8 70
1945229N15137 1945 46 WP MM SUSAN 1945-08-24 18:00:00 TS 24.4512 131.466 main 730 721 O________OPO__ jtwc_wp WP141945 24.6000 131.400 75 1 24.6000 131.400 TC 75 23.8737 131.734 7 24.6000 131.400 75 975 180 8 66
1945229N15137 1945 46 WP MM SUSAN 1945-08-24 21:00:00 TS 24.6197 131.848 main 722 705 P________POP__ WP141945 24.7773 131.808 75 1 24.7773 131.808 TC 75 24.0000 132.000 7 24.7773 131.808 75 975 180 8 62
1945229N15137 1945 46 WP MM SUSAN 1945-08-25 00:00:00 TS 24.8280 132.248 main 707 684 O________OPO__ jtwc_wp WP141945 25.0000 132.200 75 1 25.0000 132.200 TC 75 24.1401 132.440 7 25.0000 132.200 75 975 180 9 58
1945229N15137 1945 46 WP MM SUSAN 1945-08-25 03:00:00 TS 25.0877 132.682 main 687 664 P________PPP__ WP141945 25.2701 132.630 75 1 25.2701 132.630 TC 75 24.3370 132.950 7 25.2701 132.630 75 974 150 9 52
1945229N15137 1945 46 WP MM SUSAN 1945-08-25 06:00:00 TS 25.4095 133.073 main 667 633 O________OPO__ jtwc_wp WP141945 25.6000 133.000 75 1 25.6000 133.000 TC 75 24.6152 133.459 7 25.6000 133.000 75 974 120 9 41
1945229N15137 1945 46 WP MM SUSAN 1945-08-25 09:00:00 TS 25.7968 133.359 main 637 601 P________POP__ WP141945 25.9923 133.238 77 1 25.9923 133.238 TC 77 25.0000 133.900 7 25.9923 133.238 77 973 150 9 29
1945229N15137 1945 46 WP MM SUSAN 1945-08-25 12:00:00 TS 26.2233 133.575 main 605 571 O________OPO__ jtwc_wp WP141945 26.4000 133.400 80 1 26.4000 133.400 TC 80 25.5164 134.273 7 26.4000 133.400 80 972 180 9 24
1945229N15137 1945 46 WP MM SUSAN 1945-08-25 15:00:00 TS 26.6258 133.770 main 576 543 P________PPP__ WP141945 26.7425 133.580 80 1 26.7425 133.580 TC 80 26.1363 134.557 7 26.7425 133.580 80 971 180 9 19
1945229N15137 1945 46 WP MM SUSAN 1945-08-25 18:00:00 TS 27.0520 133.891 main 534 497 O________OPO__ jtwc_wp WP141945 27.1000 133.700 80 1 27.1000 133.700 TC 80 26.8131 134.713 7 27.1000 133.700 80 970 180 9 8
1945229N15137 1945 46 WP MM SUSAN 1945-08-25 21:00:00 TS 27.5276 133.906 main 497 449 P________POP__ WP141945 27.5275 133.715 80 1 27.5275 133.715 TC 80 27.5000 134.700 7 27.5275 133.715 80 969 150 10 358
1945229N15137 1945 46 WP MM SUSAN 1945-08-26 00:00:00 TS 28.0203 133.851 main 449 397 O________OPO__ jtwc_wp WP141945 28.0000 133.700 80 1 28.0000 133.700 TC 80 28.1016 134.456 7 28.0000 133.700 80 968 120 10 356
1945229N15137 1945 46 WP MM SUSAN 1945-08-26 03:00:00 TS 28.5318 133.812 main 397 347 P________PPP__ WP141945 28.4850 133.757 80 1 28.4850 133.757 TC 80 28.7068 134.047 7 28.4850 133.757 80 968 150 11 355
1945229N15137 1945 46 WP MM SUSAN 1945-08-26 06:00:00 TS 29.0721 133.745 main 338 290 O________OPO__ jtwc_wp WP141945 29.0000 133.800 80 1 29.0000 133.800 TC 80 29.3332 133.564 7 29.0000 133.800 80 968 180 11 352
1945229N15137 1945 46 WP MM SUSAN 1945-08-26 09:00:00 TS 29.6483 133.633 main 290 240 P________POP__ WP141945 29.5575 133.773 77 1 29.5575 133.773 TC 77 30.0000 133.100 7 29.5575 133.773 77 968 180 12 350
1945229N15137 1945 46 WP MM SUSAN 1945-08-26 12:00:00 TS 30.2295 133.520 main 240 205 O________OPO__ jtwc_wp WP141945 30.1000 133.700 75 1 30.1000 133.700 TC 75 30.7473 132.799 7 30.1000 133.700 75 968 180 11 350
1945229N15137 1945 46 WP MM SUSAN 1945-08-26 15:00:00 TS 30.7576 133.394 main 201 169 P________PPP__ WP141945 30.5575 133.615 75 1 30.5575 133.615 TC 75 31.5339 132.532 7 30.5575 133.615 75 968 180 11 347
1945229N15137 1945 46 WP MM SUSAN 1945-08-26 18:00:00 TS 31.2758 133.245 main 157 100 O________OPO__ jtwc_wp WP141945 31.0000 133.500 75 1 31.0000 133.500 TC 75 32.3287 132.274 7 31.0000 133.500 75 969 180 11 345
1945229N15137 1945 46 WP MM SUSAN 1945-08-26 21:00:00 TS 31.8148 133.063 main 100 45 P________POP__ WP141945 31.4851 133.335 75 1 31.4851 133.335 TC 75 33.1000 132.000 7 31.4851 133.335 75 969 210 11 344
1945229N15137 1945 46 WP MM SUSAN 1945-08-27 00:00:00 TS 32.3593 132.873 main 34 0 O________OPO__ jtwc_wp WP141945 32.0000 133.200 75 1 32.0000 133.200 TC 75 33.7964 131.563 7 32.0000 133.200 75 970 240 11 347
1945229N15137 1945 46 WP MM SUSAN 1945-08-27 03:00:00 TS 32.9228 132.762 main 0 0 P________PPP__ WP141945 32.5500 133.177 67 1 32.5500 133.177 TC 67 34.4659 131.122 7 32.5500 133.177 67 972 240 11 353
1945229N15137 1945 46 WP MM SUSAN 1945-08-27 06:00:00 TS 33.4879 132.703 main 0 0 O________OPO__ jtwc_wp WP141945 33.1000 133.200 60 0 33.1000 133.200 TC 60 35.1272 130.768 7 33.1000 133.200 60 974 240 11 356
1945229N15137 1945 46 WP MM SUSAN 1945-08-27 09:00:00 TS 34.0291 132.669 main 9 0 P________POP__ WP141945 33.6000 133.193 55 0 33.6000 133.193 TC 55 35.8000 130.600 7 33.6000 133.193 55 976 240 11 359
1945229N15137 1945 46 WP MM SUSAN 1945-08-27 12:00:00 TS 34.5857 132.693 main 0 0 O________OPO__ jtwc_wp WP141945 34.1000 133.200 50 0 34.1000 133.200 TC 50 36.5286 130.665 7 34.1000 133.200 50 978 240 11 5
1945229N15137 1945 46 WP MM SUSAN 1945-08-27 15:00:00 TS 35.1659 132.782 main 0 0 P________PPP__ WP141945 34.6275 133.242 45 0 34.6275 133.242 TC 45 37.2691 130.938 7 34.6275 133.242 45 980 270 13 4
1945229N15137 1945 46 WP MM SUSAN 1945-08-27 18:00:00 TS 35.9141 132.822 main 45 45 O________OPO__ jtwc_wp WP141945 35.2000 133.300 40 0 35.2000 133.300 TC 40 38.0001 131.393 7 35.2000 133.300 40 983 300 16 3
1945229N15137 1945 46 WP MM SUSAN 1945-08-27 21:00:00 TS 36.7970 132.900 main 144 144 P________POP__ WP141945 35.8325 133.352 40 0 35.8325 133.352 TC 40 38.7000 132.000 7 35.8325 133.352 40 976 210 20 5
1945229N15137 1945 46 WP MM SUSAN 1945-08-28 00:00:00 TS 37.9188 133.049 main 267 267 O________OPO__ jtwc_wp WP141945 36.5000 133.400 40 0 36.5000 133.400 TC 40 39.3376 132.698 7 36.5000 133.400 40 970 120 32 9
1945229N15137 1945 46 WP MM SUSAN 1945-08-28 03:00:00 NR 39.9397 133.536 main 314 260 __________P___ WP141945 -1 TC 39.9397 133.536 7 28 23
1945229N15137 1945 46 WP MM SUSAN 1945-08-28 06:00:00 NR 40.5215 134.456 main 264 230 __________P___ -1 40.5215 134.456 7 18 51
1945229N15137 1945 46 WP MM SUSAN 1945-08-28 09:00:00 NR 41.1000 135.400 main 235 228 __________O___ -1 41.1000 135.400 7 18 51
1945229N15137 1945 46 WP MM SUSAN 1945-08-28 12:00:00 NR 41.6651 136.357 main 226 205 __________P___ -1 41.6651 136.357 7 18 52
1945229N15137 1945 46 WP MM SUSAN 1945-08-28 15:00:00 NR 42.2353 137.315 main 205 132 __________P___ -1 42.2353 137.315 7 18 50
1945229N15137 1945 46 WP MM SUSAN 1945-08-28 18:00:00 NR 42.8375 138.216 main 132 106 __________P___ -1 42.8375 138.216 7 18 44
1945229N15137 1945 46 WP MM SUSAN 1945-08-28 21:00:00 NR 43.5000 139.000 main 106 97 __________O___ -1 43.5000 139.000 7 17 33
1945229N15137 1945 46 WP MM SUSAN 1945-08-29 00:00:00 NR 44.2859 139.533 main 128 124 __________P___ -1 44.2859 139.533 7 18 23
1945229N15137 1945 46 WP MM SUSAN 1945-08-29 03:00:00 NR 45.1330 139.954 main 125 110 __________P___ -1 45.1330 139.954 7 18 19
1945229N15137 1945 46 WP MM SUSAN 1945-08-29 06:00:00 NR 45.9890 140.371 main 114 71 __________P___ -1 45.9890 140.371 7 18 22
1945229N15137 1945 46 WP MM SUSAN 1945-08-29 09:00:00 NR 46.8000 140.900 main 71 31 __________O___ -1 46.8000 140.900 7 18 29
1945229N15137 1945 46 WP MM SUSAN 1945-08-29 12:00:00 NR 47.5230 141.630 main 31 0 __________P___ -1 47.5230 141.630 7 18 39
1945229N15137 1945 46 WP MM SUSAN 1945-08-29 15:00:00 NR 48.1662 142.540 main 0 0 __________P___ -1 48.1662 142.540 7 18 47
1945229N15137 1945 46 WP MM SUSAN 1945-08-29 18:00:00 NR 48.7510 143.581 main 45 0 __________P___ -1 48.7510 143.581 7 18 51
1945229N15137 1945 46 WP MM SUSAN 1945-08-29 21:00:00 NR 49.3000 144.700 main 28 __________O___ -1 49.3000 144.700 7 18 53

デジタル台風データ・検索

IBTrACS Databaseについて

本データベースは、米国NOAAが公開する1842年以降の世界の熱帯低気圧のベストトラックデータアーカイブInternational Best Track Archive for Climate Stewardship (IBTrACS)を、ウェブで閲覧しやすい形式に変換したものです。

最終更新日:2021-11-26